KBUY

Burlington-Alamance Regional Airport

Burlington, North Carolina, USA
METAR KBUY 170554Z AUTO 00000KT 10SM CLR 01/M03 A3028 RMK AO2 SLP254 T00061028 10072 20006 51006
Observed Flight Rules
Jan-17 @ 05:54 UTC (an hour ago) Visual Flight Rules
Visibility Clouds
10 miles
  • Clear skies
Temperatures Readings
Current 1°C / 34°F
Dewpoint -3°C / 27°F
Humidity 75%
Altimeter 30.28" Hg
Pressure 1025.4 hPa
Elevation 180
METAR KBUY 170554Z AUTO 00000KT 10SM CLR 01/M03 A3028 RMK AO2 SLP254 T00061028 10072 20006 51006
Observed Flight Rules
Jan-17 @ 05:54 UTC
(an hour ago)
VFR
Clouds
  • Clear skies
Temperature Dewpoint
1°C / 34°F -3°C / 27°F
Humidity Altimeter Pressure
75% 30.28" Hg 1025.4 hPa